createdAt,value
2019-03-30T00:00:21.150Z,77.20
2019-03-30T00:02:50.462Z,77.00
2019-03-30T00:05:18.953Z,77.10
2019-03-30T00:07:47.560Z,78.00
2019-03-30T00:10:15.997Z,79.00
2019-03-30T00:12:44.475Z,79.30
2019-03-30T00:15:13.005Z,79.70
2019-03-30T00:17:41.422Z,80.10
2019-03-30T00:20:10.022Z,80.20
2019-03-30T00:22:57.878Z,80.60
2019-03-30T00:25:26.323Z,81.10
2019-03-30T00:27:54.823Z,81.50
2019-03-30T00:30:23.251Z,82.00
2019-03-30T00:32:51.682Z,82.50
2019-03-30T00:35:20.310Z,82.80
2019-03-30T00:37:48.742Z,82.70
2019-03-30T00:40:17.237Z,83.20
2019-03-30T00:42:45.779Z,83.70
2019-03-30T00:45:14.265Z,83.90
2019-03-30T00:47:42.713Z,84.20
2019-03-30T00:50:13.160Z,84.30
2019-03-30T00:52:41.605Z,84.30
2019-03-30T00:55:10.124Z,84.70
2019-03-30T00:57:38.547Z,84.90
2019-03-30T01:00:08.418Z,85.10
2019-03-30T01:02:36.945Z,85.60
2019-03-30T01:05:06.941Z,85.20
2019-03-30T01:07:35.392Z,85.30
2019-03-30T01:10:07.286Z,86.00
2019-03-30T01:12:55.117Z,86.80
2019-03-30T01:15:23.613Z,87.60
2019-03-30T01:17:52.047Z,88.80
2019-03-30T01:20:20.581Z,89.60
2019-03-30T01:22:49.013Z,90.10
2019-03-30T01:25:17.519Z,90.50
2019-03-30T01:27:45.956Z,91.10
2019-03-30T01:30:23.028Z,90.70
2019-03-30T01:32:44.814Z,90.80
2019-03-30T01:35:13.269Z,90.70
2019-03-30T01:37:41.954Z,90.70
2019-03-30T01:40:10.614Z,90.80
2019-03-30T01:42:39.194Z,90.60
2019-03-30T01:45:08.397Z,90.20
2019-03-30T01:47:37.014Z,89.90
2019-03-30T01:50:17.358Z,90.20
2019-03-30T01:52:40.404Z,90.40
2019-03-30T01:55:08.874Z,90.80
2019-03-30T01:57:37.439Z,90.90
2019-03-30T02:00:25.194Z,91.00
2019-03-30T02:02:53.651Z,91.10
2019-03-30T02:05:22.163Z,91.50
2019-03-30T02:07:50.618Z,91.30
2019-03-30T02:10:22.141Z,91.40
2019-03-30T02:12:50.582Z,91.30
2019-03-30T02:15:18.998Z,91.40
2019-03-30T02:17:47.446Z,91.70
2019-03-30T02:20:30.342Z,92.00
2019-03-30T02:22:49.130Z,92.10
2019-03-30T02:25:17.544Z,92.20
2019-03-30T02:27:46.060Z,92.40
2019-03-30T02:30:14.640Z,92.60
2019-03-30T02:32:43.112Z,92.70
2019-03-30T02:35:11.557Z,92.60
2019-03-30T02:37:39.963Z,92.40
2019-03-30T02:40:08.860Z,92.50
2019-03-30T02:42:37.281Z,92.50
2019-03-30T02:45:07.073Z,92.50
2019-03-30T02:47:35.578Z,92.60
2019-03-30T02:50:05.446Z,92.50
2019-03-30T02:52:33.858Z,92.60
2019-03-30T02:55:02.305Z,92.50
2019-03-30T02:57:30.769Z,92.60
2019-03-30T02:59:59.368Z,92.80
2019-03-30T03:02:27.880Z,92.80
2019-03-30T03:04:56.311Z,92.80
2019-03-30T03:07:24.750Z,92.80
2019-03-30T03:09:53.197Z,92.80
2019-03-30T03:12:21.642Z,92.80
2019-03-30T03:15:09.481Z,92.70
2019-03-30T03:17:37.952Z,92.70
2019-03-30T03:20:06.920Z,92.60
2019-03-30T03:22:35.371Z,92.60
2019-03-30T03:25:09.638Z,92.60
2019-03-30T03:27:38.180Z,92.60
2019-03-30T03:30:27.477Z,92.60
2019-03-30T03:32:55.900Z,92.50
2019-03-30T03:35:24.376Z,92.60
2019-03-30T03:37:52.831Z,92.50
2019-03-30T03:40:21.355Z,92.50
2019-03-30T03:42:49.925Z,92.60
2019-03-30T03:45:18.736Z,92.70
2019-03-30T03:47:47.221Z,92.80
2019-03-30T03:50:36.378Z,92.80
2019-03-30T03:53:05.430Z,92.70
2019-03-30T03:55:35.307Z,92.60
2019-03-30T03:58:05.302Z,92.50
2019-03-30T04:00:35.289Z,92.50
2019-03-30T04:03:04.865Z,92.50
2019-03-30T04:05:36.669Z,92.60
2019-03-30T04:08:25.984Z,92.70
2019-03-30T04:11:15.321Z,92.80
2019-03-30T04:13:45.590Z,92.80
2019-03-30T04:16:14.105Z,93.20
2019-03-30T04:18:42.550Z,93.00
2019-03-30T04:21:11.132Z,92.90
2019-03-30T04:23:39.614Z,93.00
2019-03-30T04:26:08.350Z,93.00
2019-03-30T04:28:44.731Z,93.10
2019-03-30T04:31:13.189Z,93.30
2019-03-30T04:33:41.719Z,93.50
2019-03-30T04:36:10.355Z,93.70
2019-03-30T04:38:44.781Z,93.60
2019-03-30T04:41:13.414Z,93.70
2019-03-30T04:43:45.137Z,93.60
2019-03-30T04:46:13.825Z,93.50
2019-03-30T04:48:43.022Z,93.60
2019-03-30T04:51:11.464Z,93.60
2019-03-30T04:53:39.889Z,93.60
2019-03-30T04:56:08.434Z,93.50
2019-03-30T04:58:37.598Z,93.50
2019-03-30T05:01:06.248Z,93.60
2019-03-30T05:03:34.823Z,93.60
2019-03-30T05:06:03.538Z,93.60
2019-03-30T05:08:32.012Z,93.50
2019-03-30T05:11:00.693Z,93.30
2019-03-30T05:13:29.470Z,93.40
2019-03-30T05:15:57.890Z,93.40
2019-03-30T05:18:26.431Z,93.60
2019-03-30T05:20:54.923Z,93.70
2019-03-30T05:23:23.420Z,93.80
2019-03-30T05:25:51.921Z,94.10
2019-03-30T05:28:20.346Z,94.20
2019-03-30T05:30:48.794Z,94.30
2019-03-30T05:33:17.210Z,94.20
2019-03-30T05:36:04.998Z,94.40
2019-03-30T05:38:33.437Z,94.20
2019-03-30T05:41:01.890Z,94.40
2019-03-30T05:43:30.318Z,93.90
2019-03-30T05:45:58.810Z,93.80
2019-03-30T05:48:27.609Z,93.70
2019-03-30T05:50:56.235Z,93.60
2019-03-30T05:53:25.052Z,93.50
2019-03-30T05:55:53.648Z,93.60
2019-03-30T05:58:22.142Z,93.40
2019-03-30T06:00:53.103Z,93.30
2019-03-30T06:03:21.639Z,93.20
2019-03-30T06:05:50.190Z,92.90
2019-03-30T06:08:18.638Z,93.00
2019-03-30T06:10:47.059Z,92.80
2019-03-30T06:13:15.517Z,92.80
2019-03-30T06:15:44.001Z,92.60
2019-03-30T06:18:12.480Z,92.40
2019-03-30T06:20:40.888Z,92.20
2019-03-30T06:23:09.358Z,92.10
2019-03-30T06:25:37.842Z,92.30
2019-03-30T06:28:06.305Z,92.10
2019-03-30T06:30:34.806Z,91.60
2019-03-30T06:33:03.539Z,91.00
2019-03-30T06:35:32.034Z,90.60
2019-03-30T06:38:00.520Z,90.00
2019-03-30T06:40:28.978Z,89.10
2019-03-30T06:42:59.602Z,88.20
2019-03-30T06:45:28.034Z,86.20
2019-03-30T06:47:56.641Z,83.10
2019-03-30T06:50:25.108Z,80.40
2019-03-30T06:52:57.878Z,79.60
2019-03-30T06:55:23.911Z,78.10
2019-03-30T06:57:52.529Z,77.50
2019-03-30T07:00:24.069Z,76.60
2019-03-30T07:02:54.287Z,74.80
2019-03-30T07:05:22.916Z,73.60
2019-03-30T07:07:51.661Z,75.50
2019-03-30T07:10:20.202Z,74.80
2019-03-30T07:12:51.759Z,68.20
2019-03-30T07:15:21.009Z,65.20
2019-03-30T07:17:50.597Z,64.30
2019-03-30T07:20:29.254Z,61.30
2019-03-30T07:23:11.378Z,60.70
2019-03-30T07:25:29.101Z,61.20
2019-03-30T07:27:57.541Z,63.30
2019-03-30T07:30:26.069Z,65.90
2019-03-30T07:32:54.536Z,64.40
2019-03-30T07:35:22.987Z,63.60
2019-03-30T07:37:51.463Z,63.60
2019-03-30T07:40:19.964Z,63.40
2019-03-30T07:42:48.440Z,63.20
2019-03-30T07:45:17.017Z,62.00
2019-03-30T07:47:45.474Z,63.60
2019-03-30T07:50:16.479Z,64.00
2019-03-30T07:52:45.079Z,66.30
2019-03-30T07:55:13.935Z,64.40
2019-03-30T07:57:42.507Z,63.90
2019-03-30T08:00:11.505Z,59.70
2019-03-30T08:02:39.986Z,58.60
2019-03-30T08:05:08.783Z,60.00
2019-03-30T08:07:37.287Z,62.20
2019-03-30T08:10:06.374Z,61.60
2019-03-30T08:12:35.100Z,63.20
2019-03-30T08:15:05.477Z,66.10
2019-03-30T08:17:34.051Z,68.70
2019-03-30T08:20:02.500Z,69.90
2019-03-30T08:22:31.061Z,69.70
2019-03-30T08:24:59.666Z,68.60
2019-03-30T08:27:28.170Z,67.30
2019-03-30T08:29:56.643Z,68.20
2019-03-30T08:32:25.215Z,67.10
2019-03-30T08:34:53.829Z,67.50
2019-03-30T08:37:22.354Z,66.50
2019-03-30T08:39:51.726Z,65.50
2019-03-30T08:42:20.499Z,65.30
2019-03-30T08:44:49.121Z,66.00
2019-03-30T08:47:17.569Z,64.70
2019-03-30T08:49:46.143Z,64.30
2019-03-30T08:52:14.606Z,63.50
2019-03-30T08:54:43.107Z,64.20
2019-03-30T08:57:11.694Z,65.60
2019-03-30T08:59:40.162Z,64.30
2019-03-30T09:02:08.742Z,63.00
2019-03-30T09:04:37.243Z,63.70
2019-03-30T09:07:06.837Z,63.40
2019-03-30T09:09:35.328Z,61.20
2019-03-30T09:12:03.982Z,60.40
2019-03-30T09:14:32.455Z,60.20
2019-03-30T09:17:01.470Z,61.30
2019-03-30T09:19:29.955Z,62.40
2019-03-30T09:21:58.489Z,63.50
2019-03-30T09:24:27.057Z,62.90
2019-03-30T09:26:55.533Z,62.10
2019-03-30T09:29:24.012Z,63.50
2019-03-30T09:31:52.446Z,62.10
2019-03-30T09:34:20.919Z,61.90
2019-03-30T09:36:49.428Z,59.30
2019-03-30T09:39:18.060Z,59.80
2019-03-30T09:41:46.806Z,60.60
2019-03-30T09:44:15.246Z,59.90
2019-03-30T09:46:43.798Z,58.90
2019-03-30T09:49:12.264Z,59.30
2019-03-30T09:51:40.763Z,58.00
2019-03-30T09:54:23.089Z,56.70
2019-03-30T09:56:42.232Z,57.40
2019-03-30T09:59:10.700Z,56.90
2019-03-30T10:01:39.224Z,56.20
2019-03-30T10:04:07.890Z,55.50
2019-03-30T10:06:36.490Z,56.00
2019-03-30T10:09:06.592Z,55.50
2019-03-30T10:11:35.097Z,55.80
2019-03-30T10:14:03.623Z,56.00
2019-03-30T10:16:32.215Z,56.30
2019-03-30T10:19:00.721Z,55.50
2019-03-30T10:21:29.764Z,54.00
2019-03-30T10:23:58.261Z,53.60
2019-03-30T10:26:26.739Z,53.90
2019-03-30T10:28:56.849Z,52.60
2019-03-30T10:31:25.319Z,51.30
2019-03-30T10:33:54.242Z,49.80
2019-03-30T10:36:22.707Z,50.20
2019-03-30T10:38:51.193Z,50.50
2019-03-30T10:41:19.618Z,50.50
2019-03-30T10:43:48.108Z,50.60
2019-03-30T10:46:16.554Z,50.30
2019-03-30T10:48:45.015Z,49.70
2019-03-30T10:51:13.546Z,49.40
2019-03-30T10:53:42.051Z,49.20
2019-03-30T10:56:10.521Z,48.00
2019-03-30T10:58:39.037Z,48.70
2019-03-30T11:01:07.522Z,49.10
2019-03-30T11:03:36.015Z,48.30
2019-03-30T11:06:04.536Z,48.20
2019-03-30T11:08:33.059Z,49.10
2019-03-30T11:11:01.490Z,49.60
2019-03-30T11:13:29.966Z,49.00
2019-03-30T11:15:58.724Z,48.00
2019-03-30T11:18:27.199Z,48.70
2019-03-30T11:20:55.643Z,49.20
2019-03-30T11:23:24.176Z,49.80
2019-03-30T11:25:54.956Z,50.40
2019-03-30T11:28:23.434Z,49.80
2019-03-30T11:30:51.873Z,49.80
2019-03-30T11:33:20.318Z,50.60
2019-03-30T11:35:48.830Z,49.80
2019-03-30T11:38:17.292Z,49.80
2019-03-30T11:40:45.772Z,50.00
2019-03-30T11:43:14.199Z,50.00
2019-03-30T11:45:42.660Z,50.20
2019-03-30T11:48:11.133Z,49.00
2019-03-30T11:50:39.606Z,49.60
2019-03-30T11:53:08.629Z,49.80
2019-03-30T11:55:37.683Z,49.80
2019-03-30T11:58:06.276Z,49.20
2019-03-30T12:00:34.865Z,48.50
2019-03-30T12:03:03.415Z,48.80
2019-03-30T12:05:31.911Z,48.70
2019-03-30T12:08:00.409Z,48.00
2019-03-30T12:10:28.922Z,48.00
2019-03-30T12:12:57.579Z,47.40
2019-03-30T12:15:26.162Z,47.50
2019-03-30T12:17:54.647Z,47.30
2019-03-30T12:20:23.124Z,47.30
2019-03-30T12:22:53.915Z,47.40
2019-03-30T12:25:34.798Z,47.00
2019-03-30T12:27:52.909Z,46.00
2019-03-30T12:30:21.454Z,45.40
2019-03-30T12:32:51.039Z,46.30
2019-03-30T12:35:20.340Z,45.00
2019-03-30T12:37:49.607Z,45.20
2019-03-30T12:40:18.857Z,44.10
2019-03-30T12:42:48.815Z,44.00
2019-03-30T12:45:17.524Z,43.20
2019-03-30T12:47:45.975Z,42.60
2019-03-30T12:50:14.849Z,37.20
2019-03-30T12:52:43.446Z,39.00
2019-03-30T12:55:11.963Z,39.90
2019-03-30T12:57:40.552Z,39.10
2019-03-30T13:00:14.252Z,38.90
2019-03-30T13:02:42.707Z,36.90
2019-03-30T13:05:11.341Z,36.10
2019-03-30T13:07:39.804Z,35.70
2019-03-30T13:10:08.457Z,35.00
2019-03-30T13:12:36.959Z,35.00
2019-03-30T13:15:24.917Z,36.20
2019-03-30T13:17:53.436Z,37.30
2019-03-30T13:20:21.950Z,38.20
2019-03-30T13:22:52.009Z,37.90
2019-03-30T13:25:21.952Z,36.70
2019-03-30T13:27:53.291Z,38.50
2019-03-30T13:30:20.792Z,39.50
2019-03-30T13:32:53.452Z,39.20
2019-03-30T13:35:21.115Z,39.10
2019-03-30T13:37:49.690Z,39.40
2019-03-30T13:40:18.313Z,39.10
2019-03-30T13:42:46.765Z,39.60
2019-03-30T13:45:15.260Z,39.40
2019-03-30T13:47:43.872Z,39.10
2019-03-30T13:50:12.516Z,39.80
2019-03-30T13:52:41.115Z,38.10
2019-03-30T13:57:37.911Z,37.70
2019-03-30T14:00:09.900Z,37.20
2019-03-30T14:02:38.419Z,38.00
2019-03-30T14:05:09.974Z,36.20
2019-03-30T14:07:38.567Z,35.70
2019-03-30T14:10:09.267Z,34.30
2019-03-30T14:12:37.804Z,33.90
2019-03-30T14:15:09.159Z,33.40
2019-03-30T14:17:36.755Z,33.20
2019-03-30T14:20:07.827Z,34.10
2019-03-30T14:22:37.351Z,33.50
2019-03-30T14:25:08.939Z,33.00
2019-03-30T14:27:37.368Z,33.50
2019-03-30T14:30:08.822Z,33.50
2019-03-30T14:32:37.406Z,33.60
2019-03-30T14:35:06.864Z,33.70
2019-03-30T14:37:35.331Z,33.60
2019-03-30T14:40:05.920Z,33.90
2019-03-30T14:42:34.387Z,34.10
2019-03-30T14:45:02.923Z,33.70
2019-03-30T14:47:31.346Z,33.50
2019-03-30T14:49:59.781Z,33.90
2019-03-30T14:52:28.247Z,33.50
2019-03-30T14:54:56.713Z,34.10
2019-03-30T14:57:25.261Z,34.10
2019-03-30T14:59:53.881Z,34.60
2019-03-30T15:02:22.385Z,34.40
2019-03-30T15:04:50.816Z,34.30
2019-03-30T15:07:19.274Z,34.10
2019-03-30T15:09:47.827Z,34.20
2019-03-30T15:12:16.309Z,34.30
2019-03-30T15:14:44.738Z,34.40
2019-03-30T15:17:13.223Z,34.30
2019-03-30T15:19:41.792Z,34.60
2019-03-30T15:22:10.217Z,34.90
2019-03-30T15:24:38.677Z,35.20
2019-03-30T15:27:07.110Z,34.80
2019-03-30T15:29:35.638Z,35.00
2019-03-30T15:32:04.154Z,35.10
2019-03-30T15:34:32.567Z,35.10
2019-03-30T15:37:01.113Z,35.00
2019-03-30T15:39:29.559Z,35.50
2019-03-30T15:42:09.158Z,35.90
2019-03-30T15:44:37.576Z,35.40
2019-03-30T15:47:06.055Z,35.30
2019-03-30T15:49:34.484Z,35.00
2019-03-30T15:52:13.797Z,35.70
2019-03-30T15:54:37.102Z,36.50
2019-03-30T15:57:14.090Z,36.70
2019-03-30T15:59:34.266Z,36.60
2019-03-30T16:02:02.839Z,37.00
2019-03-30T16:04:31.258Z,36.80
2019-03-30T16:06:59.935Z,36.70
2019-03-30T16:09:28.751Z,36.80
2019-03-30T16:11:57.236Z,37.30
2019-03-30T16:14:25.738Z,37.00
2019-03-30T16:16:54.131Z,37.10
2019-03-30T16:19:25.789Z,37.30
2019-03-30T16:21:54.221Z,36.50
2019-03-30T16:24:22.758Z,36.90
2019-03-30T16:26:51.219Z,37.40
2019-03-30T16:29:19.738Z,37.10
2019-03-30T16:31:48.269Z,36.70
2019-03-30T16:34:16.711Z,36.90
2019-03-30T16:36:45.686Z,36.90
2019-03-30T16:39:14.161Z,37.00
2019-03-30T16:41:42.732Z,37.30
2019-03-30T16:44:11.253Z,37.70
2019-03-30T16:46:39.849Z,37.90
2019-03-30T16:49:08.342Z,38.20
2019-03-30T16:51:36.762Z,38.70
2019-03-30T16:54:05.311Z,38.70
2019-03-30T16:56:33.995Z,38.80
2019-03-30T16:59:03.097Z,39.10
2019-03-30T17:01:31.708Z,39.50
2019-03-30T17:04:01.528Z,39.40
2019-03-30T17:06:30.033Z,39.40
2019-03-30T17:08:58.483Z,39.90
2019-03-30T17:11:26.922Z,39.90
2019-03-30T17:13:55.374Z,40.10
2019-03-30T17:16:23.913Z,40.70
2019-03-30T17:18:52.351Z,40.60
2019-03-30T17:21:20.832Z,40.20
2019-03-30T17:23:49.591Z,40.40
2019-03-30T17:26:18.903Z,40.90
2019-03-30T17:28:47.410Z,41.30
2019-03-30T17:31:15.921Z,42.40
2019-03-30T17:33:44.398Z,43.90
2019-03-30T17:36:12.882Z,44.80
2019-03-30T17:38:41.362Z,45.20
2019-03-30T17:41:09.932Z,45.90
2019-03-30T17:43:38.358Z,46.20
2019-03-30T17:46:06.801Z,46.60
2019-03-30T17:48:35.242Z,47.10
2019-03-30T17:51:03.714Z,47.60
2019-03-30T17:53:32.232Z,47.90
2019-03-30T17:56:02.385Z,47.30
2019-03-30T17:58:30.922Z,48.20
2019-03-30T18:00:59.404Z,49.10
2019-03-30T18:03:27.840Z,49.60
2019-03-30T18:05:56.339Z,50.00
2019-03-30T18:08:24.753Z,50.50
2019-03-30T18:10:53.401Z,51.00
2019-03-30T18:13:21.989Z,51.30
2019-03-30T18:15:50.468Z,52.00
2019-03-30T18:18:18.970Z,52.80
2019-03-30T18:20:47.423Z,52.90
2019-03-30T18:23:15.892Z,53.10
2019-03-30T18:25:44.501Z,53.90
2019-03-30T18:28:26.229Z,54.10
2019-03-30T18:30:43.212Z,54.60
2019-03-30T18:33:11.752Z,54.40
2019-03-30T18:35:40.473Z,54.80
2019-03-30T18:38:12.602Z,55.60
2019-03-30T18:40:39.720Z,55.50
2019-03-30T18:43:08.206Z,55.90
2019-03-30T18:45:36.720Z,56.10
2019-03-30T18:48:13.307Z,56.60
2019-03-30T18:50:42.585Z,56.70
2019-03-30T18:53:11.115Z,57.60
2019-03-30T18:55:39.551Z,57.00
2019-03-30T18:58:07.959Z,58.10
2019-03-30T19:00:36.427Z,58.50
2019-03-30T19:03:05.376Z,58.90
2019-03-30T19:05:33.977Z,58.40
2019-03-30T19:08:03.282Z,58.40
2019-03-30T19:10:31.752Z,59.30
2019-03-30T19:13:00.183Z,59.70
2019-03-30T19:15:28.794Z,59.70
2019-03-30T19:17:57.336Z,62.50
2019-03-30T19:20:25.890Z,62.70
2019-03-30T19:22:54.504Z,63.00
2019-03-30T19:25:22.998Z,64.60
2019-03-30T19:27:51.458Z,63.30
2019-03-30T19:30:20.467Z,63.10
2019-03-30T19:32:48.919Z,64.50
2019-03-30T19:35:17.417Z,63.90
2019-03-30T19:37:45.826Z,62.30
2019-03-30T19:40:14.484Z,62.70
2019-03-30T19:42:42.921Z,63.40
2019-03-30T19:45:11.636Z,63.50
2019-03-30T19:47:40.087Z,63.50
2019-03-30T19:50:08.775Z,63.40
2019-03-30T19:52:40.221Z,63.80
2019-03-30T19:55:07.727Z,63.10
2019-03-30T19:57:36.354Z,62.80
2019-03-30T20:00:07.907Z,62.80
2019-03-30T20:02:36.597Z,61.70
2019-03-30T20:05:07.876Z,61.10
2019-03-30T20:07:36.456Z,61.80
2019-03-30T20:10:05.882Z,61.30
2019-03-30T20:12:36.282Z,61.10
2019-03-30T20:15:07.671Z,62.10
2019-03-30T20:17:36.311Z,61.80
2019-03-30T20:20:05.675Z,61.80
2019-03-30T20:22:34.076Z,61.80
2019-03-30T20:25:02.671Z,63.10
2019-03-30T20:27:31.096Z,61.90
2019-03-30T20:30:00.026Z,61.80
2019-03-30T20:32:28.568Z,61.70
2019-03-30T20:34:57.467Z,61.30
2019-03-30T20:37:26.084Z,61.10
2019-03-30T20:39:54.503Z,61.30
2019-03-30T20:42:23.047Z,61.60
2019-03-30T20:44:51.514Z,62.60
2019-03-30T20:47:20.044Z,62.40
2019-03-30T20:49:48.604Z,62.40
2019-03-30T20:52:17.095Z,61.60
2019-03-30T20:54:45.655Z,61.00
2019-03-30T20:57:14.104Z,61.90
2019-03-30T20:59:43.509Z,62.50
2019-03-30T21:02:12.031Z,62.40
2019-03-30T21:04:40.593Z,63.00
2019-03-30T21:07:09.127Z,63.80
2019-03-30T21:09:37.639Z,64.10
2019-03-30T21:12:06.112Z,62.10
2019-03-30T21:14:34.533Z,61.80
2019-03-30T21:17:03.064Z,61.30
2019-03-30T21:19:31.540Z,60.90
2019-03-30T21:22:00.035Z,62.10
2019-03-30T21:24:28.465Z,63.30
2019-03-30T21:26:56.935Z,62.50
2019-03-30T21:29:25.370Z,60.80
2019-03-30T21:31:54.088Z,60.90
2019-03-30T21:34:22.542Z,62.50
2019-03-30T21:36:51.059Z,64.20
2019-03-30T21:39:19.495Z,63.80
2019-03-30T21:41:47.957Z,63.30
2019-03-30T21:44:22.165Z,62.50
2019-03-30T21:46:46.547Z,62.80
2019-03-30T21:49:15.012Z,63.70
2019-03-30T21:51:43.444Z,63.60
2019-03-30T21:54:13.200Z,63.20
2019-03-30T21:56:41.652Z,62.90
2019-03-30T21:59:10.142Z,61.80
2019-03-30T22:01:38.595Z,61.70
2019-03-30T22:04:07.151Z,62.90
2019-03-30T22:06:35.966Z,64.20
2019-03-30T22:09:06.683Z,65.10
2019-03-30T22:11:36.167Z,66.40
2019-03-30T22:14:04.954Z,68.80
2019-03-30T22:16:33.527Z,68.30
2019-03-30T22:19:02.037Z,69.10
2019-03-30T22:21:30.513Z,67.20
2019-03-30T22:23:59.064Z,69.30
2019-03-30T22:26:27.603Z,69.20
2019-03-30T22:28:56.119Z,69.30
2019-03-30T22:31:24.550Z,68.80
2019-03-30T22:33:52.976Z,69.70
2019-03-30T22:36:22.067Z,68.80
2019-03-30T22:38:50.574Z,67.30
2019-03-30T22:41:19.049Z,66.90
2019-03-30T22:43:47.540Z,68.90
2019-03-30T22:46:16.026Z,69.50
2019-03-30T22:48:44.480Z,68.00
2019-03-30T22:51:13.579Z,67.00
2019-03-30T22:53:41.979Z,67.20
2019-03-30T22:56:10.448Z,68.00
2019-03-30T22:58:40.068Z,70.10
2019-03-30T23:01:10.266Z,71.40
2019-03-30T23:03:38.903Z,72.70
2019-03-30T23:06:07.358Z,72.00
2019-03-30T23:08:35.844Z,71.50
2019-03-30T23:11:04.446Z,72.00
2019-03-30T23:13:33.148Z,69.50
2019-03-30T23:16:01.711Z,70.70
2019-03-30T23:18:30.167Z,71.00
2019-03-30T23:20:58.625Z,72.10
2019-03-30T23:23:27.078Z,71.90
2019-03-30T23:26:14.995Z,71.80
2019-03-30T23:28:43.398Z,72.70
2019-03-30T23:31:11.960Z,73.70
2019-03-30T23:33:40.454Z,74.00
2019-03-30T23:36:08.857Z,73.40
2019-03-30T23:38:37.414Z,73.50
2019-03-30T23:41:05.847Z,73.40
2019-03-30T23:43:36.022Z,73.30
2019-03-30T23:46:04.619Z,72.80
2019-03-30T23:48:33.084Z,73.40
2019-03-30T23:51:01.571Z,73.60
2019-03-30T23:53:30.004Z,73.60
2019-03-30T23:55:58.452Z,73.30
2019-03-30T23:58:26.919Z,73.50
